Time;durP1;ratioP1;P1;durP2;ratioP2;P2;SDS_P1;SDS_P2;PMS_P1;PMS_P2;Temp;Humidity;BMP_temperature;BMP_pressure;BME280_temperature;BME280_humidity;BME280_pressure;Samples;Min_cycle;Max_cycle;Signal;HPM_P1;HPM_P2
2022/03/11 00:01:16;;;;;;;16.30;6.97;;;0.80;99.90;;;-1.04;63.77;102961.72;4902114;28;20046;-76
2022/03/11 00:03:43;;;;;;;22.73;7.80;;;0.80;99.90;;;-1.06;63.51;102955.59;4964773;28;20419;-75
2022/03/11 00:06:09;;;;;;;26.73;9.73;;;0.80;99.90;;;-1.05;63.54;102956.47;4937281;28;20046;-76
2022/03/11 00:08:35;;;;;;;24.33;9.77;;;0.80;99.90;;;-1.07;63.78;102959.00;4943917;28;20034;-75
2022/03/11 00:11:01;;;;;;;23.00;9.93;;;0.70;99.90;;;-1.08;63.86;102957.25;4960931;28;20034;-75
2022/03/11 00:13:29;;;;;;;22.55;8.85;;;0.70;99.90;;;-1.11;64.04;102959.69;4935326;28;20052;-76
2022/03/11 00:15:55;;;;;;;17.75;6.70;;;0.70;99.90;;;-1.16;64.03;102958.66;4962336;28;20077;-76
2022/03/11 00:18:22;;;;;;;25.05;10.18;;;0.70;99.90;;;-1.13;64.43;102945.81;4958449;28;20147;-76
2022/03/11 00:20:47;;;;;;;25.83;10.55;;;0.70;99.90;;;-1.14;64.36;102958.72;4952877;28;20034;-75
2022/03/11 00:23:13;;;;;;;23.05;9.57;;;0.70;99.90;;;-1.17;64.56;102936.19;4938533;28;20113;-76
2022/03/11 00:25:40;;;;;;;23.17;10.05;;;0.60;99.90;;;-1.19;64.00;102924.03;4939552;28;20050;-76
2022/03/11 00:28:07;;;;;;;31.98;10.52;;;0.60;99.90;;;-1.25;64.66;102925.59;4953305;28;20456;-76
2022/03/11 00:30:33;;;;;;;24.70;9.80;;;0.60;99.90;;;-1.26;64.67;102920.34;4923681;28;20034;-76
2022/03/11 00:33:00;;;;;;;26.63;11.05;;;0.60;99.90;;;-1.27;65.01;102910.84;4919856;28;21643;-76
2022/03/11 00:35:27;;;;;;;19.10;6.18;;;0.50;99.90;;;-1.32;64.74;102915.84;4939924;28;20027;-76
2022/03/11 00:37:53;;;;;;;25.08;10.63;;;0.50;99.90;;;-1.30;65.01;102921.94;4941099;28;20026;-76
2022/03/11 00:40:20;;;;;;;27.52;11.07;;;0.50;99.90;;;-1.33;64.76;102916.66;4936085;28;20027;-76
2022/03/11 00:42:46;;;;;;;23.45;10.25;;;0.50;99.90;;;-1.36;65.07;102920.81;4942460;28;20038;-75
2022/03/11 00:45:14;;;;;;;24.33;10.02;;;0.50;99.90;;;-1.38;64.70;102909.53;4928279;28;20560;-76
2022/03/11 00:47:40;;;;;;;23.70;11.27;;;0.50;99.90;;;-1.38;64.98;102909.53;4943766;28;20111;-76
2022/03/11 00:50:07;;;;;;;29.63;10.65;;;0.50;99.90;;;-1.42;65.54;102913.75;4967168;28;20034;-76
2022/03/11 00:52:33;;;;;;;23.02;9.98;;;0.40;99.90;;;-1.42;66.14;102911.16;4951369;28;20207;-76
2022/03/11 00:55:02;;;;;;;30.55;9.45;;;0.40;99.90;;;-1.47;65.45;102910.06;4958975;28;20038;-76
2022/03/11 00:57:29;;;;;;;22.50;9.85;;;0.40;99.90;;;-1.50;65.23;102905.69;4939813;28;20061;-76
2022/03/11 00:59:55;;;;;;;25.30;11.23;;;0.40;99.90;;;-1.49;65.40;102903.97;4936859;28;20048;-76
2022/03/11 01:02:21;;;;;;;25.13;10.48;;;0.40;99.90;;;-1.51;65.71;102901.34;4945370;28;20046;-76
2022/03/11 01:04:49;;;;;;;26.55;11.25;;;0.30;99.90;;;-1.56;65.32;102902.84;4950230;28;20023;-76
2022/03/11 01:07:17;;;;;;;23.55;11.00;;;0.30;99.90;;;-1.54;65.46;102903.78;4940645;28;20498;-75
2022/03/11 01:09:43;;;;;;;28.50;10.50;;;0.30;99.90;;;-1.55;65.56;102902.06;4926318;28;20027;-76
2022/03/11 01:12:09;;;;;;;24.65;8.95;;;0.20;99.90;;;-1.63;65.36;102903.44;4941670;28;20038;-75
2022/03/11 01:14:35;;;;;;;24.52;10.80;;;0.20;99.90;;;-1.62;65.29;102894.91;4938897;28;20070;-76
2022/03/11 01:17:01;;;;;;;21.67;9.55;;;0.20;99.90;;;-1.63;65.16;102892.25;4949464;28;20031;-76
2022/03/11 01:19:27;;;;;;;29.85;10.95;;;0.20;99.90;;;-1.65;65.45;102894.75;4939729;28;20041;-76
2022/03/11 01:21:53;;;;;;;24.85;9.80;;;0.20;99.90;;;-1.66;65.72;102895.59;4951895;28;20031;-76
2022/03/11 01:24:21;;;;;;;28.48;11.35;;;0.20;99.90;;;-1.64;65.71;102893.97;4944524;28;20451;-76
2022/03/11 01:26:49;;;;;;;22.85;10.23;;;0.10;99.90;;;-1.72;65.35;102888.47;4924722;28;20567;-76
2022/03/11 01:29:15;;;;;;;31.63;9.55;;;0.10;99.90;;;-1.76;65.43;102896.94;4945897;28;20041;-77
2022/03/11 01:31:41;;;;;;;26.10;10.73;;;0.10;99.90;;;-1.73;65.34;102893.59;4942100;28;20070;-76
2022/03/11 01:34:09;;;;;;;25.98;11.00;;;0.10;99.90;;;-1.74;64.95;102881.50;4935304;28;20055;-76
2022/03/11 01:36:35;;;;;;;25.77;10.70;;;0.10;99.90;;;-1.75;65.28;102887.47;4939508;28;20018;-76
2022/03/11 01:39:01;;;;;;;30.35;11.00;;;0.10;99.90;;;-1.78;65.71;102877.03;4923138;28;20154;-76
2022/03/11 01:41:28;;;;;;;24.60;11.15;;;0.00;99.90;;;-1.81;65.37;102890.72;4947156;28;20023;-77
2022/03/11 01:44:07;;;;;;;23.83;11.18;;;0.00;99.90;;;-1.81;65.57;102887.22;4934932;28;20042;-76
2022/03/11 01:46:34;;;;;;;24.08;10.55;;;0.00;99.90;;;-1.82;65.84;102881.19;4948022;28;20074;-76
2022/03/11 01:49:04;;;;;;;22.45;7.30;;;0.00;99.90;;;-1.90;65.84;102891.25;4951180;28;20038;-76
2022/03/11 01:51:33;;;;;;;27.88;10.77;;;0.00;99.90;;;-1.91;65.41;102889.47;4949757;28;20039;-76
2022/03/11 01:54:00;;;;;;;26.67;10.45;;;-0.10;99.90;;;-1.89;65.71;102882.66;4949667;28;20149;-76
2022/03/11 01:56:27;;;;;;;16.55;7.43;;;-0.10;99.90;;;-1.97;65.66;102884.06;4950872;28;20514;-76
2022/03/11 01:58:56;;;;;;;23.42;9.65;;;-0.10;99.90;;;-1.99;65.71;102875.34;4941384;28;20038;-77
2022/03/11 02:01:24;;;;;;;27.55;8.95;;;-0.10;99.90;;;-1.95;65.63;102882.41;4950921;28;20111;-76
2022/03/11 02:03:51;;;;;;;27.55;11.18;;;-0.10;99.90;;;-1.95;65.89;102878.97;4940814;28;20677;-76
2022/03/11 02:06:18;;;;;;;22.15;10.18;;;-0.10;99.90;;;-1.98;65.63;102876.25;4949233;28;20043;-76
2022/03/11 02:08:45;;;;;;;26.60;11.40;;;-0.20;99.90;;;-1.98;65.64;102889.19;4909467;28;20549;-76
2022/03/11 02:11:11;;;;;;;22.23;11.00;;;-0.10;99.90;;;-2.00;65.19;102883.06;4940745;28;20043;-76
2022/03/11 02:13:54;;;;;;;21.67;9.10;;;-0.20;99.90;;;-2.03;65.08;102882.94;4932277;28;20044;-76
2022/03/11 02:16:26;;;;;;;28.05;10.63;;;-0.20;99.90;;;-2.06;65.46;102876.81;4959085;28;20090;-76
2022/03/11 02:18:54;;;;;;;26.00;10.30;;;-0.20;99.90;;;-2.04;65.34;102879.47;4953208;28;20022;-76
2022/03/11 02:21:22;;;;;;;26.58;10.70;;;-0.20;99.90;;;-2.05;65.15;102877.72;4924895;28;20050;-76
2022/03/11 02:23:57;;;;;;;15.82;6.78;;;-0.20;99.90;;;-2.13;65.31;102874.81;4944458;28;20403;-77
2022/03/11 02:26:26;;;;;;;27.17;11.30;;;-0.30;99.90;;;-2.14;65.03;102880.81;4934344;28;20097;-75
2022/03/11 02:28:56;;;;;;;19.55;7.18;;;-0.30;99.90;;;-2.16;65.84;102868.66;4940885;28;20042;-75
2022/03/11 02:31:26;;;;;;;11.50;3.95;;;-0.30;99.90;;;-2.21;65.42;102867.59;4943943;28;20035;-75
2022/03/11 02:33:53;;;;;;;22.52;8.32;;;-0.30;99.90;;;-2.18;65.54;102872.88;4932607;28;20027;-75
2022/03/11 02:36:19;;;;;;;16.88;6.85;;;-0.30;99.90;;;-2.22;65.29;102876.16;4940117;28;20038;-75
2022/03/11 02:38:45;;;;;;;25.55;10.40;;;-0.30;99.90;;;-2.22;65.66;102860.69;4934215;28;20059;-75
2022/03/11 02:41:12;;;;;;;20.27;9.35;;;-0.40;99.90;;;-2.19;65.15;102865.97;4949782;28;20023;-75
2022/03/11 02:43:41;;;;;;;20.85;9.20;;;-0.30;99.90;;;-2.19;65.28;102863.38;4949280;28;20104;-75
2022/03/11 02:46:09;;;;;;;20.35;9.10;;;-0.40;99.90;;;-2.23;65.69;102859.78;4934093;28;20061;-75
2022/03/11 02:48:35;;;;;;;24.55;9.48;;;-0.40;99.90;;;-2.21;65.30;102857.28;4959644;28;20148;-76
2022/03/11 02:51:01;;;;;;;22.00;9.45;;;-0.30;99.90;;;-2.22;65.53;102871.00;4966266;28;20023;-75
2022/03/11 02:53:27;;;;;;;21.75;8.93;;;-0.40;99.90;;;-2.30;65.08;102858.66;4930934;28;20109;-75
2022/03/11 02:55:53;;;;;;;26.40;10.15;;;-0.40;99.90;;;-2.30;65.38;102853.50;4948985;28;20047;-75
2022/03/11 02:58:20;;;;;;;28.05;10.35;;;-0.40;99.90;;;-2.30;65.13;102853.50;4943297;28;20046;-75
2022/03/11 03:00:47;;;;;;;22.88;9.32;;;-0.40;99.90;;;-2.32;65.50;102847.38;4950642;28;20023;-75
2022/03/11 03:03:13;;;;;;;21.55;9.50;;;-0.40;99.90;;;-2.33;65.45;102847.34;4940936;28;20050;-75
2022/03/11 03:05:39;;;;;;;28.08;9.30;;;-0.50;99.90;;;-2.38;65.48;102849.72;4945380;28;20101;-75
2022/03/11 03:08:05;;;;;;;22.38;8.35;;;-0.50;99.90;;;-2.43;65.28;102848.66;4933114;28;21559;-75
2022/03/11 03:10:31;;;;;;;28.55;9.50;;;-0.50;99.90;;;-2.43;65.66;102845.22;4950742;28;20511;-75
2022/03/11 03:12:57;;;;;;;40.53;11.07;;;-0.50;99.90;;;-2.45;65.78;102847.72;4952105;28;20153;-75
2022/03/11 03:15:25;;;;;;;20.38;7.25;;;-0.70;99.90;;;-2.52;65.83;102841.44;4948329;28;20067;-75
2022/03/11 03:17:51;;;;;;;25.17;9.85;;;-0.60;99.90;;;-2.49;65.95;102840.66;4949256;28;20035;-75
2022/03/11 03:20:17;;;;;;;30.10;9.75;;;-0.60;99.90;;;-2.49;66.12;102831.22;4941721;28;20621;-75
2022/03/11 03:22:43;;;;;;;22.52;7.00;;;-0.60;99.90;;;-2.57;65.71;102836.88;4947928;28;20046;-75
2022/03/11 03:25:09;;;;;;;22.10;7.82;;;-0.60;99.90;;;-2.57;66.33;102829.16;4951764;28;20385;-75
2022/03/11 03:27:36;;;;;;;23.02;9.38;;;-0.60;99.90;;;-2.58;66.39;102846.31;4942718;28;20035;-75
2022/03/11 03:30:05;;;;;;;21.88;7.82;;;-0.70;99.90;;;-2.62;66.30;102833.25;4933090;28;20034;-74
2022/03/11 03:32:31;;;;;;;13.00;5.97;;;-0.70;99.90;;;-2.69;66.56;102832.13;4950146;28;20039;-75
2022/03/11 03:34:57;;;;;;;26.38;9.93;;;-0.80;99.90;;;-2.67;66.17;102830.47;4950481;28;20026;-75
2022/03/11 03:37:23;;;;;;;18.60;7.25;;;-0.80;99.90;;;-2.68;66.92;102839.00;4948118;28;20089;-75
2022/03/11 03:39:52;;;;;;;28.98;10.45;;;-0.80;99.90;;;-2.69;66.89;102838.16;4937601;28;20077;-75
2022/03/11 03:42:18;;;;;;;16.00;4.82;;;-0.80;99.90;;;-2.77;66.81;102833.47;4951476;28;20035;-74
2022/03/11 03:44:44;;;;;;;20.65;8.32;;;-0.80;99.90;;;-2.75;66.92;102837.00;4952686;28;20086;-75
2022/03/11 03:47:10;;;;;;;29.27;10.45;;;-0.80;99.90;;;-2.76;66.83;102833.56;4951671;28;20027;-75
2022/03/11 03:49:36;;;;;;;19.88;9.00;;;-0.80;99.90;;;-2.78;66.84;102830.03;4945916;28;21035;-75
2022/03/11 03:52:05;;;;;;;13.48;5.78;;;-0.80;99.90;;;-2.78;66.35;102836.91;4954113;28;20046;-75
2022/03/11 03:54:31;;;;;;;24.05;9.70;;;-0.90;99.90;;;-2.77;66.62;102830.91;4953201;28;20038;-75
2022/03/11 03:56:57;;;;;;;28.23;10.63;;;-0.90;99.90;;;-2.76;66.84;102827.53;4951354;28;20030;-75
2022/03/11 03:59:24;;;;;;;17.90;5.50;;;-0.90;99.90;;;-2.83;66.99;102828.97;4955457;28;20507;-74
2022/03/11 04:01:50;;;;;;;27.35;9.98;;;-0.90;99.90;;;-2.81;66.74;102826.44;4954154;28;20022;-75
2022/03/11 04:04:16;;;;;;;20.42;8.90;;;-0.90;99.90;;;-2.82;66.95;102822.09;4951830;28;20412;-75
2022/03/11 04:06:42;;;;;;;25.73;10.82;;;-0.90;99.90;;;-2.82;66.73;102825.56;4951672;28;20223;-74
2022/03/11 04:09:09;;;;;;;25.15;10.48;;;-0.90;99.90;;;-2.83;67.11;102821.22;4952297;28;20699;-75
2022/03/11 04:11:36;;;;;;;23.42;9.30;;;-0.90;99.90;;;-2.83;66.78;102828.06;4952472;28;20086;-74
2022/03/11 04:14:02;;;;;;;20.13;7.35;;;-1.00;99.90;;;-2.90;67.24;102826.94;4949122;28;20581;-75
2022/03/11 04:16:29;;;;;;;19.75;6.78;;;-0.90;99.90;;;-2.91;66.96;102825.19;4953400;28;20031;-74
2022/03/11 04:18:55;;;;;;;26.67;9.55;;;-1.00;99.90;;;-2.87;66.86;102816.75;4953260;28;20031;-74
2022/03/11 04:21:21;;;;;;;20.75;8.75;;;-1.00;99.90;;;-2.88;66.82;102825.28;4937694;28;20503;-74
2022/03/11 04:23:50;;;;;;;28.55;10.73;;;-1.00;99.90;;;-2.89;66.88;102823.56;4951477;28;20066;-74
2022/03/11 04:26:17;;;;;;;26.05;8.75;;;-1.00;99.90;;;-2.93;67.30;102817.38;4955414;28;20067;-75
2022/03/11 04:28:43;;;;;;;21.27;8.05;;;-1.00;99.90;;;-2.94;66.91;102822.44;4935629;28;20042;-74
2022/03/11 04:31:11;;;;;;;31.92;9.15;;;-1.00;99.90;;;-2.96;67.51;102821.50;4952518;28;20031;-74
2022/03/11 04:33:41;;;;;;;21.02;8.07;;;-1.00;99.90;;;-2.95;67.36;102819.00;4975523;28;20034;-74
2022/03/11 04:36:09;;;;;;;20.90;8.48;;;-1.10;99.90;;;-2.96;66.94;102819.84;4951625;28;20023;-74
2022/03/11 04:38:35;;;;;;;23.15;9.65;;;-1.00;99.90;;;-2.94;67.29;102830.19;4950771;28;20696;-74
2022/03/11 04:41:02;;;;;;;14.55;7.10;;;-1.10;99.90;;;-3.03;67.18;102820.38;4950142;28;20063;-74
2022/03/11 04:43:28;;;;;;;33.45;9.93;;;-1.10;99.90;;;-3.00;67.04;102824.75;4975811;28;20491;-74
2022/03/11 04:45:54;;;;;;;17.67;7.35;;;-1.10;99.90;;;-3.04;67.23;102822.91;4951494;28;20415;-74
2022/03/11 04:48:20;;;;;;;30.85;11.05;;;-1.10;99.90;;;-3.03;67.38;102824.66;4952131;28;20041;-74
2022/03/11 04:50:46;;;;;;;22.85;8.73;;;-1.10;99.90;;;-3.07;67.78;102827.91;4952756;28;20031;-74
2022/03/11 04:53:12;;;;;;;30.95;11.13;;;-1.10;99.90;;;-3.07;67.31;102825.31;4942440;28;20118;-74
2022/03/11 04:55:38;;;;;;;21.95;8.95;;;-1.20;99.90;;;-3.12;67.29;102831.16;4951004;28;20059;-74
2022/03/11 04:58:04;;;;;;;18.20;7.13;;;-1.20;99.90;;;-3.13;67.11;102825.97;4954468;28;20490;-74
2022/03/11 05:00:30;;;;;;;22.27;8.82;;;-1.20;99.90;;;-3.13;67.28;102824.25;4950116;28;20035;-74
2022/03/11 05:02:58;;;;;;;32.00;10.38;;;-1.20;99.90;;;-3.08;67.53;102819.28;4942875;28;20085;-74
2022/03/11 05:05:25;;;;;;;25.77;10.18;;;-1.20;99.90;;;-3.11;67.16;102826.88;4950877;28;20081;-74
2022/03/11 05:07:51;;;;;;;24.58;9.75;;;-1.20;99.90;;;-3.12;67.63;102826.00;4966367;28;20035;-74
2022/03/11 05:10:18;;;;;;;22.45;8.07;;;-1.20;99.90;;;-3.13;67.09;102824.25;4957011;28;20035;-74
2022/03/11 05:12:44;;;;;;;24.23;9.45;;;-1.20;99.90;;;-3.12;66.86;102823.44;4950716;28;20043;-74
2022/03/11 05:15:11;;;;;;;22.48;10.70;;;-1.20;99.90;;;-3.07;67.10;102827.91;4935292;28;20042;-74
2022/03/11 05:17:37;;;;;;;26.75;10.77;;;-1.20;99.90;;;-3.12;67.22;102838.88;4948669;28;20027;-74
2022/03/11 05:20:07;;;;;;;22.80;9.75;;;-1.20;99.90;;;-3.17;67.65;102829.22;4953949;28;20530;-74
2022/03/11 05:22:34;;;;;;;27.98;10.95;;;-1.30;99.90;;;-3.19;67.83;102829.13;4949148;28;20062;-74
2022/03/11 05:25:01;;;;;;;20.70;7.72;;;-1.30;99.90;;;-3.18;67.25;102835.16;4951760;28;20034;-74
2022/03/11 05:27:27;;;;;;;25.42;9.98;;;-1.30;99.90;;;-3.18;67.71;102833.47;4950123;28;20121;-74
2022/03/11 05:29:53;;;;;;;26.70;10.43;;;-1.20;99.90;;;-3.15;67.83;102836.19;4957709;28;20435;-74
2022/03/11 05:32:20;;;;;;;25.27;9.65;;;-1.20;99.90;;;-3.15;67.50;102833.63;4944255;28;20023;-74
2022/03/11 05:34:48;;;;;;;29.65;10.23;;;-1.20;99.90;;;-3.13;67.57;102839.72;4935229;28;20479;-74
2022/03/11 05:37:15;;;;;;;28.17;10.63;;;-1.30;99.90;;;-3.12;67.21;102830.28;4950138;28;20050;-74
2022/03/11 05:39:41;;;;;;;22.15;9.50;;;-1.20;99.90;;;-3.14;67.11;102826.75;4950793;28;20023;-74
2022/03/11 05:42:08;;;;;;;27.13;10.95;;;-1.20;99.90;;;-3.11;67.09;102827.78;4973789;28;20034;-74
2022/03/11 05:44:34;;;;;;;27.92;10.23;;;-1.30;99.90;;;-3.13;67.15;102825.97;4949887;28;20652;-73
2022/03/11 05:47:01;;;;;;;19.40;7.40;;;-1.30;99.90;;;-3.18;67.11;102833.47;4951094;28;20035;-74
2022/03/11 05:49:27;;;;;;;18.63;7.93;;;-1.30;99.90;;;-3.19;67.02;102826.56;4934218;28;20019;-74
2022/03/11 05:51:53;;;;;;;19.95;8.38;;;-1.30;99.90;;;-3.15;67.04;102828.47;4952621;28;20479;-74
2022/03/11 05:54:19;;;;;;;28.17;11.15;;;-1.30;99.90;;;-3.11;67.00;102825.22;4932906;28;20122;-74
2022/03/11 05:56:50;;;;;;;24.33;9.48;;;-1.20;99.90;;;-3.07;66.88;102825.31;4975766;28;20038;-74
2022/03/11 05:59:18;;;;;;;19.25;7.95;;;-1.20;99.90;;;-3.07;67.40;102825.31;4966145;28;20105;-74
2022/03/11 06:01:44;;;;;;;26.45;10.57;;;-1.20;99.90;;;-2.99;67.40;102823.97;4966665;28;20023;-73
2022/03/11 06:04:11;;;;;;;26.35;11.07;;;-1.10;99.90;;;-2.49;66.49;102808.00;4950152;28;20054;-73
2022/03/11 06:06:37;;;;;;;29.80;10.88;;;-1.00;99.90;;;-2.41;65.50;102812.59;4934662;28;20419;-73
2022/03/11 06:09:03;;;;;;;25.15;10.32;;;-0.80;99.90;;;-0.90;63.64;102808.72;4952018;28;20710;-74
2022/03/11 06:11:29;;;;;;;23.98;9.13;;;-0.50;99.90;;;-0.02;60.51;102807.25;4950015;28;20035;-74
2022/03/11 06:13:55;;;;;;;24.17;7.93;;;-0.20;99.90;;;-0.33;59.28;102802.81;4949609;28;20031;-73
2022/03/11 06:16:22;;;;;;;13.85;5.68;;;0.10;99.90;;;0.09;57.78;102820.53;4950207;28;20527;-74
2022/03/11 06:18:48;;;;;;;23.60;9.90;;;0.40;99.90;;;2.00;55.61;102819.47;4950655;28;20039;-74
2022/03/11 06:21:14;;;;;;;28.88;10.05;;;1.00;99.90;;;3.05;51.64;102827.69;4933084;28;20023;-74
2022/03/11 06:23:40;;;;;;;27.20;10.20;;;1.30;99.90;;;2.91;50.73;102854.28;4950002;28;21594;-74
2022/03/11 06:26:06;;;;;;;28.48;11.38;;;1.80;99.90;;;5.37;48.10;102863.88;4948505;28;20041;-74
2022/03/11 06:28:32;;;;;;;26.70;10.82;;;2.50;99.90;;;6.31;43.62;102878.53;4949760;28;20027;-74
2022/03/11 06:30:58;;;;;;;24.08;9.35;;;2.90;99.90;;;4.31;45.15;102892.22;4951361;28;20448;-74
2022/03/11 06:33:24;;;;;;;25.45;10.38;;;2.80;99.90;;;2.24;48.85;102906.66;4963496;28;20050;-74
2022/03/11 06:35:51;;;;;;;28.08;11.00;;;2.40;99.90;;;1.88;50.03;102907.56;4961521;28;20031;-74
2022/03/11 06:38:18;;;;;;;24.95;10.50;;;2.30;99.90;;;3.59;49.07;102905.88;4932676;28;20027;-74
2022/03/11 06:40:44;;;;;;;24.08;10.52;;;2.70;99.90;;;7.49;43.84;102919.09;4951101;28;20027;-74
2022/03/11 06:43:11;;;;;;;28.30;11.70;;;3.70;99.90;;;10.05;38.11;102919.88;4949058;28;20062;-75
2022/03/11 06:45:37;;;;;;;15.73;5.68;;;4.90;99.90;;;10.58;34.88;102943.91;4942466;28;20039;-75
2022/03/11 06:48:04;;;;;;;16.60;7.00;;;5.50;98.10;;;10.61;34.25;102936.00;4948705;28;20141;-74
2022/03/11 06:50:30;;;;;;;27.70;11.52;;;5.90;96.80;;;10.87;34.01;102940.94;4949915;28;20069;-74
2022/03/11 06:52:56;;;;;;;27.48;11.00;;;6.10;95.70;;;10.88;33.14;102962.03;4949330;28;20051;-74
2022/03/11 06:55:22;;;;;;;24.88;10.75;;;6.30;95.30;;;11.58;33.22;102951.41;4973633;28;20035;-75
2022/03/11 06:57:48;;;;;;;21.92;10.63;;;6.90;94.80;;;12.27;32.39;102967.91;4950652;28;20046;-74
2022/03/11 07:00:15;;;;;;;24.70;10.77;;;7.10;94.20;;;12.60;31.48;102982.25;4950206;28;20503;-75
2022/03/11 07:02:41;;;;;;;28.77;11.95;;;7.60;93.30;;;13.13;30.67;102982.03;4943236;28;21511;-74
2022/03/11 07:05:10;;;;;;;27.45;12.00;;;7.80;91.80;;;13.16;30.38;102991.72;4932952;28;20019;-75
2022/03/11 07:07:37;;;;;;;25.27;11.27;;;8.30;91.10;;;13.48;29.17;102994.53;4948928;28;20039;-74
2022/03/11 07:10:09;;;;;;;18.10;7.80;;;8.50;90.10;;;11.99;29.69;102994.78;4947859;28;20031;-75
2022/03/11 07:12:36;;;;;;;21.42;9.65;;;8.20;90.30;;;11.20;30.34;103008.19;4948126;28;20445;-74
2022/03/11 07:15:05;;;;;;;27.75;10.68;;;8.10;89.80;;;12.30;30.40;103020.66;4955425;28;20127;-73
2022/03/11 07:17:31;;;;;;;21.95;9.82;;;8.60;89.50;;;13.05;29.19;103026.31;4953199;28;20498;-74
2022/03/11 07:19:58;;;;;;;27.80;10.98;;;8.70;86.30;;;12.03;29.34;103024.63;4954339;28;20062;-73
2022/03/11 07:22:24;;;;;;;26.50;12.80;;;9.00;87.70;;;13.66;29.48;103034.72;4951616;28;20448;-74
2022/03/11 07:24:50;;;;;;;22.88;8.80;;;9.60;86.00;;;12.90;28.08;103038.94;4936941;28;20109;-74
2022/03/11 07:27:16;;;;;;;25.70;11.35;;;9.70;84.50;;;13.82;28.67;103043.19;4951868;28;20141;-75
2022/03/11 07:29:42;;;;;;;29.02;12.30;;;10.00;82.40;;;13.84;28.29;103046.66;4965850;28;20392;-74
2022/03/11 07:32:10;;;;;;;22.58;11.20;;;10.10;80.30;;;12.60;28.89;103048.31;4957156;28;20430;-74
2022/03/11 07:34:36;;;;;;;21.20;9.43;;;10.30;80.40;;;12.21;28.68;103048.09;4968139;28;20093;-74
2022/03/11 07:37:02;;;;;;;28.13;12.10;;;9.80;79.90;;;12.11;29.57;103049.13;4953617;28;20034;-74
2022/03/11 07:39:28;;;;;;;20.75;9.02;;;9.90;77.80;;;11.43;29.00;103073.84;4951318;28;20758;-75
2022/03/11 07:41:54;;;;;;;24.70;11.13;;;9.80;79.10;;;11.97;29.71;103059.06;4954113;28;20110;-75
2022/03/11 07:44:20;;;;;;;26.63;11.15;;;10.20;78.60;;;12.22;29.26;103070.97;4951205;28;20688;-75
2022/03/11 07:46:47;;;;;;;20.05;8.82;;;10.40;78.90;;;12.01;29.12;103064.28;4953266;28;20106;-74
2022/03/11 07:49:14;;;;;;;24.15;9.10;;;10.30;77.90;;;11.64;29.91;103069.16;4952204;28;20023;-74
2022/03/11 07:51:40;;;;;;;25.55;11.50;;;10.20;77.00;;;11.55;30.21;103071.94;4936308;28;20030;-75
2022/03/11 07:54:06;;;;;;;20.92;8.55;;;9.80;74.80;;;9.49;30.62;103066.72;4936187;28;20459;-75
2022/03/11 07:56:32;;;;;;;22.85;9.00;;;9.90;76.70;;;10.40;31.03;103077.56;4953875;28;20082;-74
2022/03/11 07:58:59;;;;;;;27.42;12.25;;;9.60;75.90;;;10.39;31.52;103070.56;4977905;28;20492;-75
2022/03/11 08:01:26;;;;;;;25.05;12.10;;;10.10;76.40;;;10.71;31.19;103073.75;4954118;28;20117;-75
2022/03/11 08:03:52;;;;;;;25.63;11.20;;;10.40;75.00;;;10.56;31.00;103077.41;4932138;28;20047;-75
2022/03/11 08:06:19;;;;;;;23.15;10.98;;;10.40;73.00;;;10.23;30.47;103075.00;4944302;28;20073;-75
2022/03/11 08:08:46;;;;;;;28.10;11.88;;;10.60;74.30;;;10.79;31.15;103080.72;4950890;28;20499;-75
2022/03/11 08:11:14;;;;;;;21.80;10.10;;;10.40;72.70;;;9.53;31.01;103075.47;4952202;28;20062;-75
2022/03/11 08:13:41;;;;;;;22.92;11.68;;;10.20;73.00;;;9.99;31.49;103076.06;4952592;28;20122;-76
2022/03/11 08:16:07;;;;;;;24.38;11.10;;;10.40;72.80;;;9.63;32.03;103077.16;4967447;28;20138;-75
2022/03/11 08:18:35;;;;;;;25.45;11.10;;;10.50;71.50;;;9.56;31.43;103080.72;4934161;28;20054;-75
2022/03/11 08:21:03;;;;;;;25.35;11.80;;;10.60;71.70;;;9.40;31.92;103080.78;4936521;28;20086;-76
2022/03/11 08:23:30;;;;;;;30.63;13.23;;;10.50;71.60;;;9.42;32.32;103072.91;4952320;28;20043;-76
2022/03/11 08:25:56;;;;;;;23.02;10.40;;;10.50;71.80;;;9.13;32.16;103076.47;4951797;28;20026;-75
2022/03/11 08:28:23;;;;;;;24.05;10.57;;;10.30;70.70;;;7.94;32.68;103066.91;4943870;28;20035;-75
2022/03/11 08:30:51;;;;;;;23.33;9.93;;;10.10;71.20;;;7.97;32.96;103073.03;4951982;28;20583;-75
2022/03/11 08:33:20;;;;;;;24.75;12.02;;;10.00;72.50;;;8.65;33.45;103077.47;4944057;28;20027;-75
2022/03/11 08:35:49;;;;;;;22.58;8.60;;;10.00;71.80;;;7.53;33.41;103065.03;4970522;28;20030;-75
2022/03/11 08:38:15;;;;;;;19.38;9.23;;;9.70;70.10;;;7.30;33.07;103063.22;4936181;28;20427;-77
2022/03/11 08:40:41;;;;;;;27.75;11.57;;;9.80;72.70;;;8.20;33.83;103057.31;4951459;28;20038;-76
2022/03/11 08:43:07;;;;;;;14.43;6.50;;;10.00;71.20;;;7.30;33.27;103078.03;4941805;28;20042;-76
2022/03/11 08:45:33;;;;;;;29.10;10.57;;;9.20;72.60;;;6.97;35.12;103053.44;4934947;28;20034;-76
2022/03/11 08:47:59;;;;;;;24.85;12.30;;;9.50;74.00;;;7.95;34.75;103043.31;4951262;28;20411;-76
2022/03/11 08:50:25;;;;;;;25.75;10.75;;;9.50;70.90;;;7.16;33.58;103065.75;4950500;28;20024;-76
2022/03/11 08:52:52;;;;;;;25.40;9.85;;;9.00;70.90;;;6.78;34.38;103045.47;4951365;28;20034;-76
2022/03/11 08:55:19;;;;;;;20.02;10.10;;;9.10;73.10;;;7.29;34.86;103050.09;4942760;28;20673;-76
2022/03/11 08:57:49;;;;;;;16.63;8.25;;;8.50;70.80;;;5.84;34.70;103041.19;4942999;28;20038;-75
2022/03/11 09:00:18;;;;;;;24.50;11.55;;;8.10;73.00;;;6.23;35.62;103046.81;4927444;28;20050;-75
2022/03/11 09:02:45;;;;;;;22.48;10.77;;;8.30;74.70;;;6.54;35.69;103032.22;4961787;28;20045;-76
2022/03/11 09:05:15;;;;;;;22.58;9.35;;;8.30;74.40;;;6.55;35.57;103029.59;4925029;28;20495;-76
2022/03/11 09:07:44;;;;;;;27.42;11.07;;;8.10;75.30;;;6.38;35.77;103036.47;4949743;28;20292;-75
2022/03/11 09:10:12;;;;;;;19.13;8.82;;;8.30;74.90;;;6.45;35.13;103040.88;4928069;28;20121;-76
2022/03/11 09:12:40;;;;;;;28.08;12.57;;;8.20;76.30;;;6.84;35.79;103025.44;4949797;28;20042;-76
2022/03/11 09:15:08;;;;;;;20.48;9.23;;;8.30;75.80;;;6.80;35.33;103027.13;4950545;28;20463;-76
2022/03/11 09:17:35;;;;;;;21.05;10.00;;;8.30;76.20;;;6.73;35.56;103033.22;4951780;28;20138;-76
2022/03/11 09:20:03;;;;;;;19.95;9.57;;;8.20;75.00;;;6.69;35.31;103032.31;4950574;28;20026;-76
2022/03/11 09:22:31;;;;;;;25.63;11.27;;;8.10;76.10;;;6.77;35.70;103032.38;4950102;28;20030;-75
2022/03/11 09:25:03;;;;;;;25.27;11.02;;;8.00;76.50;;;6.36;36.18;103031.22;4949681;28;20043;-75
2022/03/11 09:27:30;;;;;;;22.75;11.20;;;7.90;75.50;;;6.20;36.08;103031.06;4941220;28;20031;-76
2022/03/11 09:30:00;;;;;;;22.35;11.00;;;7.50;76.30;;;5.80;36.72;103028.94;4941732;28;20066;-75
2022/03/11 09:32:26;;;;;;;24.55;11.13;;;7.40;79.00;;;5.92;37.68;103018.59;4942261;28;20027;-76
2022/03/11 09:34:57;;;;;;;32.17;11.05;;;7.00;78.10;;;5.49;37.67;103018.16;4934055;28;20030;-77
2022/03/11 09:37:27;;;;;;;23.25;10.55;;;6.80;79.40;;;5.25;38.18;103020.50;4949103;28;20027;-75
2022/03/11 09:39:56;;;;;;;25.20;11.65;;;6.30;80.10;;;4.84;39.19;103018.22;4910661;28;20110;-75
2022/03/11 09:42:25;;;;;;;22.02;10.45;;;6.20;79.80;;;4.58;38.98;103017.81;4938866;28;20050;-75
2022/03/11 09:44:57;;;;;;;22.90;10.98;;;6.10;80.80;;;4.39;39.37;103011.47;4966410;28;20037;-75
2022/03/11 09:47:26;;;;;;;26.10;8.45;;;5.90;81.60;;;4.04;40.00;103003.91;4925565;28;20042;-76
2022/03/11 09:50:00;;;;;;;27.85;12.07;;;5.70;83.00;;;4.12;40.95;103010.16;4919873;28;20187;-75
2022/03/11 09:52:30;;;;;;;23.05;11.10;;;5.70;82.60;;;4.08;40.89;103008.34;4940465;28;20642;-76
2022/03/11 09:54:56;;;;;;;25.23;10.93;;;5.70;83.10;;;4.09;40.92;103002.28;4932124;28;20037;-75
2022/03/11 09:57:28;;;;;;;21.98;10.65;;;5.50;82.20;;;3.90;40.83;102996.75;4939267;28;20030;-75
2022/03/11 09:59:59;;;;;;;18.75;7.95;;;5.60;84.50;;;3.95;41.50;102999.41;4898811;28;20117;-76
2022/03/11 10:02:28;;;;;;;26.67;11.10;;;5.60;83.90;;;4.09;41.45;102997.94;4939217;28;20515;-75
2022/03/11 10:04:58;;;;;;;30.15;10.65;;;5.60;83.30;;;4.20;40.70;102992.91;4941910;28;20034;-75
2022/03/11 10:07:34;;;;;;;22.45;10.57;;;5.60;82.90;;;4.06;40.75;102986.56;4912930;28;20081;-75